createdAt,value
2023-10-30T00:00:43.463Z,8.38
2023-10-30T00:03:12.754Z,1.77
2023-10-30T00:05:40.195Z,1.48
2023-10-30T00:08:07.678Z,1.98
2023-10-30T00:10:38.292Z,1.38
2023-10-30T00:13:05.974Z,3.00
2023-10-30T00:15:33.358Z,2.35
2023-10-30T00:18:00.874Z,2.55
2023-10-30T00:20:28.395Z,1.75
2023-10-30T00:22:55.761Z,1.90
2023-10-30T00:25:23.162Z,2.90
2023-10-30T00:27:50.553Z,3.35
2023-10-30T00:30:19.239Z,1.08
2023-10-30T00:32:46.685Z,2.38
2023-10-30T00:35:14.147Z,1.10
2023-10-30T00:37:41.494Z,1.58
2023-10-30T00:40:09.464Z,1.60
2023-10-30T00:42:36.970Z,1.98
2023-10-30T00:45:07.207Z,1.33
2023-10-30T00:47:39.505Z,2.97
2023-10-30T00:50:08.907Z,1.20
2023-10-30T00:52:36.481Z,0.90
2023-10-30T00:55:04.169Z,0.90
2023-10-30T00:57:31.756Z,0.93
2023-10-30T01:00:00.249Z,1.05
2023-10-30T01:02:27.870Z,1.15
2023-10-30T01:04:56.420Z,0.93
2023-10-30T01:07:24.016Z,1.25
2023-10-30T01:09:51.642Z,1.02
2023-10-30T01:12:19.006Z,1.80
2023-10-30T01:14:46.690Z,0.35
2023-10-30T01:17:14.370Z,2.92
2023-10-30T01:19:41.740Z,1.63
2023-10-30T01:22:10.197Z,1.45
2023-10-30T01:24:37.649Z,0.80
2023-10-30T01:27:05.522Z,1.00
2023-10-30T01:29:33.153Z,0.93
2023-10-30T01:32:01.181Z,1.17
2023-10-30T01:34:28.684Z,2.75
2023-10-30T01:36:56.345Z,1.55
2023-10-30T01:39:23.765Z,0.95
2023-10-30T01:41:51.134Z,2.30
2023-10-30T01:44:18.519Z,0.65
2023-10-30T01:46:45.997Z,0.32
2023-10-30T01:49:13.665Z,4.03
2023-10-30T01:51:41.235Z,1.40
2023-10-30T01:54:09.054Z,0.70
2023-10-30T01:56:36.482Z,2.25
2023-10-30T01:59:03.979Z,0.50
2023-10-30T02:01:32.686Z,0.90
2023-10-30T02:04:01.261Z,0.77
2023-10-30T02:06:28.770Z,0.98
2023-10-30T02:08:56.375Z,2.42
2023-10-30T02:11:23.908Z,0.68
2023-10-30T02:13:58.004Z,0.45
2023-10-30T02:16:25.421Z,1.63
2023-10-30T02:18:52.858Z,1.00
2023-10-30T02:21:22.017Z,0.73
2023-10-30T02:23:49.753Z,0.55
2023-10-30T02:26:17.155Z,1.65
2023-10-30T02:28:44.537Z,2.50
2023-10-30T02:31:11.939Z,0.75
2023-10-30T02:33:39.336Z,0.82
2023-10-30T02:36:07.404Z,0.90
2023-10-30T02:38:35.014Z,0.43
2023-10-30T02:41:02.368Z,0.82
2023-10-30T02:43:30.108Z,2.25
2023-10-30T02:45:57.632Z,1.00
2023-10-30T02:48:25.106Z,0.95
2023-10-30T02:50:52.907Z,0.75
2023-10-30T02:53:20.273Z,0.93
2023-10-30T02:55:47.646Z,1.13
2023-10-30T02:58:15.051Z,1.08
2023-10-30T03:00:42.454Z,0.90
2023-10-30T03:03:10.957Z,2.05
2023-10-30T03:05:39.037Z,2.30
2023-10-30T03:08:06.524Z,2.28
2023-10-30T03:10:34.174Z,3.85
2023-10-30T03:13:02.021Z,3.33
2023-10-30T03:15:29.817Z,2.83
2023-10-30T03:17:57.351Z,3.83
2023-10-30T03:20:24.864Z,3.97
2023-10-30T03:22:53.564Z,3.65
2023-10-30T03:25:21.000Z,3.97
2023-10-30T03:27:48.437Z,2.92
2023-10-30T03:30:17.295Z,2.35
2023-10-30T03:32:44.770Z,2.10
2023-10-30T03:35:12.184Z,3.20
2023-10-30T03:37:39.863Z,3.25
2023-10-30T03:40:07.982Z,1.98
2023-10-30T03:42:35.653Z,4.63
2023-10-30T03:45:03.170Z,2.60
2023-10-30T03:47:30.604Z,3.38
2023-10-30T03:49:58.106Z,2.63
2023-10-30T03:52:25.452Z,3.58
2023-10-30T03:54:53.243Z,4.95
2023-10-30T03:57:20.942Z,2.58
2023-10-30T03:59:48.873Z,2.83
2023-10-30T04:02:16.709Z,2.78
2023-10-30T04:04:44.574Z,2.35
2023-10-30T04:07:12.236Z,2.65
2023-10-30T04:09:39.963Z,3.85
2023-10-30T04:12:07.956Z,2.90
2023-10-30T04:14:35.698Z,7.07
2023-10-30T04:17:04.327Z,3.58
2023-10-30T04:19:32.243Z,4.25
2023-10-30T04:21:59.962Z,2.70
2023-10-30T04:24:28.075Z,2.83
2023-10-30T04:26:55.841Z,4.05
2023-10-30T04:29:23.119Z,3.47
2023-10-30T04:31:50.564Z,3.63
2023-10-30T04:34:19.720Z,2.95
2023-10-30T04:36:47.669Z,2.67
2023-10-30T04:39:15.348Z,4.65
2023-10-30T04:41:43.162Z,2.78
2023-10-30T04:44:10.822Z,3.17
2023-10-30T04:46:38.615Z,2.53
2023-10-30T04:49:06.299Z,5.55
2023-10-30T04:51:33.798Z,3.58
2023-10-30T04:54:01.583Z,4.28
2023-10-30T04:56:29.453Z,2.70
2023-10-30T04:58:57.202Z,3.53
2023-10-30T05:01:24.996Z,3.38
2023-10-30T05:03:52.748Z,2.38
2023-10-30T05:06:20.815Z,6.35
2023-10-30T05:08:48.509Z,6.80
2023-10-30T05:11:16.198Z,5.07
2023-10-30T05:13:43.940Z,2.97
2023-10-30T05:16:11.654Z,3.45
2023-10-30T05:18:39.361Z,3.17
2023-10-30T05:21:07.578Z,4.38
2023-10-30T05:23:35.287Z,3.65
2023-10-30T05:26:03.057Z,4.07
2023-10-30T05:28:30.876Z,4.65
2023-10-30T05:30:58.626Z,5.97
2023-10-30T05:33:26.494Z,5.25
2023-10-30T05:35:54.278Z,3.97
2023-10-30T05:38:23.733Z,3.65
2023-10-30T05:40:51.566Z,3.25
2023-10-30T05:43:19.270Z,4.65
2023-10-30T05:45:48.877Z,3.78
2023-10-30T05:48:17.061Z,3.30
2023-10-30T05:50:44.959Z,5.15
2023-10-30T05:53:12.761Z,4.60
2023-10-30T05:55:40.476Z,5.18
2023-10-30T05:58:08.231Z,7.05
2023-10-30T06:00:35.949Z,3.05
2023-10-30T06:03:03.770Z,3.15
2023-10-30T06:05:31.585Z,4.50
2023-10-30T06:07:59.268Z,9.27
2023-10-30T06:10:26.968Z,4.55
2023-10-30T06:12:54.742Z,4.85
2023-10-30T06:15:22.565Z,5.50
2023-10-30T06:17:50.513Z,4.82
2023-10-30T06:20:18.280Z,4.75
2023-10-30T06:22:45.950Z,5.10
2023-10-30T06:25:13.670Z,4.45
2023-10-30T06:27:42.401Z,2.47
2023-10-30T06:30:13.763Z,3.38
2023-10-30T06:32:41.722Z,4.60
2023-10-30T06:35:09.684Z,5.18
2023-10-30T06:37:37.662Z,4.53
2023-10-30T06:40:05.873Z,4.57
2023-10-30T06:42:33.629Z,5.45
2023-10-30T06:45:01.326Z,4.90
2023-10-30T06:47:29.323Z,3.42
2023-10-30T06:49:57.164Z,3.08
2023-10-30T06:52:24.865Z,6.03
2023-10-30T06:54:52.959Z,3.45
2023-10-30T06:57:20.703Z,4.57
2023-10-30T06:59:50.261Z,3.33
2023-10-30T07:02:17.952Z,5.70
2023-10-30T07:04:45.610Z,6.05
2023-10-30T07:07:13.352Z,7.00
2023-10-30T07:09:41.282Z,16.00
2023-10-30T07:12:09.771Z,11.57
2023-10-30T07:14:38.741Z,15.57
2023-10-30T07:17:06.501Z,18.33
2023-10-30T07:19:34.201Z,13.85
2023-10-30T07:22:05.412Z,17.85
2023-10-30T07:24:33.178Z,11.63
2023-10-30T07:27:00.912Z,7.85
2023-10-30T07:29:28.624Z,12.35
2023-10-30T07:31:56.628Z,5.72
2023-10-30T07:34:24.433Z,9.07
2023-10-30T07:36:52.735Z,7.93
2023-10-30T07:39:20.468Z,6.97
2023-10-30T07:41:48.191Z,6.10
2023-10-30T07:44:15.906Z,6.50
2023-10-30T07:46:43.590Z,4.47
2023-10-30T07:49:11.356Z,4.28
2023-10-30T07:51:39.156Z,4.03
2023-10-30T07:54:07.478Z,4.28
2023-10-30T07:56:35.176Z,3.70
2023-10-30T07:59:02.952Z,3.70
2023-10-30T08:01:30.707Z,3.50
2023-10-30T08:03:58.607Z,3.03
2023-10-30T08:06:26.467Z,3.15
2023-10-30T08:08:54.541Z,3.78
2023-10-30T08:11:22.225Z,3.28
2023-10-30T08:13:49.884Z,5.95
2023-10-30T08:16:17.627Z,3.40
2023-10-30T08:18:45.513Z,4.05
2023-10-30T08:21:13.207Z,2.58
2023-10-30T08:23:41.195Z,5.47
2023-10-30T08:26:08.884Z,4.15
2023-10-30T08:28:39.833Z,3.25
2023-10-30T08:31:07.612Z,2.85
2023-10-30T08:33:35.402Z,3.33
2023-10-30T08:36:03.197Z,2.92
2023-10-30T08:38:30.868Z,5.07
2023-10-30T08:40:58.612Z,3.95
2023-10-30T08:43:26.333Z,3.40
2023-10-30T08:45:54.185Z,4.90
2023-10-30T08:48:21.980Z,4.25
2023-10-30T08:50:50.785Z,5.75
2023-10-30T08:53:19.536Z,2.80
2023-10-30T08:55:47.290Z,5.10
2023-10-30T08:58:14.999Z,2.42
2023-10-30T09:00:43.793Z,4.97
2023-10-30T09:03:11.553Z,4.88
2023-10-30T09:05:39.610Z,2.78
2023-10-30T09:08:07.361Z,2.35
2023-10-30T09:10:35.663Z,2.85
2023-10-30T09:13:03.333Z,1.50
2023-10-30T09:15:31.047Z,2.70
2023-10-30T09:17:58.719Z,2.35
2023-10-30T09:20:26.415Z,3.72
2023-10-30T09:22:54.152Z,6.32
2023-10-30T09:25:23.159Z,2.47
2023-10-30T09:27:51.522Z,3.63
2023-10-30T09:30:19.986Z,5.20
2023-10-30T09:32:47.908Z,4.15
2023-10-30T09:35:15.709Z,3.38
2023-10-30T09:37:43.400Z,4.05
2023-10-30T09:40:13.356Z,5.10
2023-10-30T09:42:52.276Z,4.85
2023-10-30T09:45:23.872Z,1.75
2023-10-30T09:47:55.309Z,7.50
2023-10-30T09:50:23.535Z,3.78
2023-10-30T09:52:54.814Z,2.13
2023-10-30T09:55:25.945Z,1.40
2023-10-30T09:57:54.398Z,6.55
2023-10-30T10:00:22.553Z,4.10
2023-10-30T10:02:50.560Z,2.67
2023-10-30T10:05:19.702Z,1.88
2023-10-30T10:07:47.876Z,3.15
2023-10-30T10:10:19.460Z,2.42
2023-10-30T10:12:51.613Z,3.22
2023-10-30T10:15:21.735Z,2.03
2023-10-30T10:17:54.166Z,1.88
2023-10-30T10:20:23.324Z,1.48
2023-10-30T10:22:52.097Z,1.42
2023-10-30T10:25:20.278Z,2.22
2023-10-30T10:27:51.081Z,2.40
2023-10-30T10:30:24.501Z,3.80
2023-10-30T10:32:52.890Z,3.72
2023-10-30T10:35:20.810Z,3.40
2023-10-30T10:37:48.593Z,1.40
2023-10-30T10:40:20.052Z,1.17
2023-10-30T10:42:48.649Z,2.08
2023-10-30T10:45:16.701Z,1.27
2023-10-30T10:47:44.462Z,1.98
2023-10-30T10:50:12.157Z,3.38
2023-10-30T10:52:40.813Z,1.88
2023-10-30T10:55:08.998Z,0.95
2023-10-30T10:57:43.259Z,1.25
2023-10-30T11:00:13.059Z,2.38
2023-10-30T11:02:41.745Z,2.22
2023-10-30T11:05:09.705Z,0.60
2023-10-30T11:07:40.442Z,1.35
2023-10-30T11:10:12.354Z,2.20
2023-10-30T11:12:45.215Z,0.47
2023-10-30T11:15:16.722Z,2.05
2023-10-30T11:17:46.413Z,2.15
2023-10-30T11:20:23.724Z,2.97
2023-10-30T11:22:51.399Z,1.05
2023-10-30T11:25:37.902Z,0.50
2023-10-30T11:28:05.585Z,0.63
2023-10-30T11:30:34.321Z,1.83
2023-10-30T11:33:02.438Z,0.85
2023-10-30T11:35:34.238Z,2.70
2023-10-30T11:38:02.372Z,0.65
2023-10-30T11:40:31.077Z,0.77
2023-10-30T11:42:58.961Z,1.30
2023-10-30T11:45:27.944Z,1.58
2023-10-30T11:48:06.551Z,1.13
2023-10-30T11:50:38.533Z,3.30
2023-10-30T11:53:10.093Z,1.70
2023-10-30T11:55:40.659Z,1.50
2023-10-30T11:58:11.923Z,1.35
2023-10-30T12:00:46.885Z,0.45
2023-10-30T12:03:15.207Z,0.88
2023-10-30T12:05:42.917Z,0.98
2023-10-30T12:08:11.357Z,0.60
2023-10-30T12:10:40.503Z,2.70
2023-10-30T12:13:10.232Z,1.02
2023-10-30T12:15:38.156Z,0.82
2023-10-30T12:18:09.089Z,1.67
2023-10-30T12:20:36.867Z,1.40
2023-10-30T12:23:04.562Z,1.77
2023-10-30T12:25:32.251Z,0.77
2023-10-30T12:28:04.865Z,1.70
2023-10-30T12:30:34.965Z,0.75
2023-10-30T12:33:03.033Z,1.40
2023-10-30T12:35:30.879Z,1.70
2023-10-30T12:37:58.567Z,3.65
2023-10-30T12:40:26.422Z,2.42
2023-10-30T12:42:54.647Z,1.13
2023-10-30T12:45:23.120Z,0.82
2023-10-30T12:47:52.018Z,1.95
2023-10-30T12:50:19.998Z,2.15
2023-10-30T12:52:47.688Z,1.08
2023-10-30T12:55:15.503Z,1.30
2023-10-30T12:57:43.438Z,0.90
2023-10-30T13:00:12.803Z,2.08
2023-10-30T13:02:40.786Z,2.13
2023-10-30T13:05:09.020Z,0.98
2023-10-30T13:07:36.986Z,1.42
2023-10-30T13:10:04.808Z,0.40
2023-10-30T13:12:32.648Z,1.85
2023-10-30T13:15:00.343Z,1.88
2023-10-30T13:17:28.738Z,2.75
2023-10-30T13:19:56.775Z,1.05
2023-10-30T13:22:25.059Z,2.33
2023-10-30T13:24:53.269Z,2.65
2023-10-30T13:27:21.265Z,0.77
2023-10-30T13:29:48.958Z,1.30
2023-10-30T13:32:16.681Z,1.13
2023-10-30T13:34:44.420Z,1.02
2023-10-30T13:37:12.107Z,3.65
2023-10-30T13:39:39.952Z,0.75
2023-10-30T13:42:07.774Z,0.98
2023-10-30T13:44:35.468Z,1.37
2023-10-30T13:47:03.172Z,2.25
2023-10-30T13:49:30.846Z,2.60
2023-10-30T13:51:58.566Z,6.35
2023-10-30T13:54:26.253Z,2.33
2023-10-30T13:56:54.244Z,2.05
2023-10-30T13:59:22.300Z,0.52
2023-10-30T14:01:51.558Z,1.58
2023-10-30T14:04:20.281Z,1.55
2023-10-30T14:06:48.086Z,1.00
2023-10-30T14:09:15.831Z,4.47
2023-10-30T14:11:44.559Z,2.83
2023-10-30T14:14:12.261Z,0.80
2023-10-30T14:16:40.652Z,1.02
2023-10-30T14:19:08.580Z,1.30
2023-10-30T14:21:36.386Z,1.58
2023-10-30T14:24:08.685Z,1.40
2023-10-30T14:26:38.245Z,2.55
2023-10-30T14:29:06.314Z,2.45
2023-10-30T14:31:34.021Z,3.30
2023-10-30T14:34:01.851Z,2.97
2023-10-30T14:36:29.796Z,4.95
2023-10-30T14:38:57.499Z,2.22
2023-10-30T14:41:27.761Z,3.88
2023-10-30T14:43:55.018Z,3.03
2023-10-30T14:46:23.344Z,4.10
2023-10-30T14:48:51.124Z,3.72
2023-10-30T14:51:19.982Z,2.42
2023-10-30T14:53:47.501Z,4.63
2023-10-30T14:56:14.859Z,2.00
2023-10-30T14:58:42.267Z,6.25
2023-10-30T15:01:09.827Z,3.58
2023-10-30T15:03:37.309Z,2.35
2023-10-30T15:06:05.098Z,1.48
2023-10-30T15:08:32.644Z,3.60
2023-10-30T15:11:00.003Z,2.78
2023-10-30T15:13:27.923Z,2.97
2023-10-30T15:15:55.791Z,3.45
2023-10-30T15:18:23.585Z,6.53
2023-10-30T15:20:51.274Z,3.20
2023-10-30T15:23:18.955Z,3.15
2023-10-30T15:25:46.631Z,2.40
2023-10-30T15:28:14.830Z,2.47
2023-10-30T15:30:42.576Z,1.77
2023-10-30T15:33:09.862Z,5.00
2023-10-30T15:35:37.263Z,2.63
2023-10-30T15:38:04.595Z,4.25
2023-10-30T15:40:31.961Z,2.25
2023-10-30T15:42:59.655Z,2.35
2023-10-30T15:45:28.532Z,1.75
2023-10-30T15:47:56.449Z,1.80
2023-10-30T15:50:23.753Z,2.53
2023-10-30T15:57:56.839Z,2.58
2023-10-30T16:00:24.656Z,3.13
2023-10-30T16:02:52.537Z,3.40
2023-10-30T16:05:20.079Z,1.63
2023-10-30T16:07:47.684Z,3.88
2023-10-30T16:10:29.935Z,3.28
2023-10-30T16:12:57.851Z,4.50
2023-10-30T16:15:25.221Z,2.05
2023-10-30T16:20:24.354Z,1.48
2023-10-30T16:22:53.018Z,4.80
2023-10-30T16:25:20.402Z,3.15
2023-10-30T16:27:47.769Z,1.90
2023-10-30T16:30:17.401Z,1.73
2023-10-30T16:32:46.422Z,2.35
2023-10-30T16:35:13.990Z,3.90
2023-10-30T16:37:41.355Z,1.58
2023-10-30T16:40:09.863Z,3.60
2023-10-30T16:42:37.308Z,4.60
2023-10-30T16:45:05.333Z,1.52
2023-10-30T16:47:32.675Z,4.50
2023-10-30T16:50:00.287Z,3.35
2023-10-30T16:52:27.666Z,3.50
2023-10-30T16:54:55.072Z,2.03
2023-10-30T16:57:22.406Z,1.13
2023-10-30T16:59:50.003Z,3.08
2023-10-30T17:02:17.449Z,2.78
2023-10-30T17:04:44.944Z,3.33
2023-10-30T17:07:14.272Z,3.00
2023-10-30T17:09:41.965Z,1.67
2023-10-30T17:12:09.243Z,2.42
2023-10-30T17:14:36.651Z,3.17
2023-10-30T17:17:07.176Z,1.73
2023-10-30T17:19:34.641Z,1.70
2023-10-30T17:22:02.278Z,1.98
2023-10-30T17:24:29.953Z,4.18
2023-10-30T17:26:57.343Z,2.35
2023-10-30T17:29:24.661Z,3.42
2023-10-30T17:31:52.512Z,1.05
2023-10-30T17:34:20.388Z,1.38
2023-10-30T17:36:47.757Z,2.25
2023-10-30T17:39:15.552Z,2.22
2023-10-30T17:41:42.880Z,2.65
2023-10-30T17:44:10.953Z,1.30
2023-10-30T17:46:38.778Z,2.35
2023-10-30T17:49:06.706Z,1.33
2023-10-30T17:51:33.937Z,1.92
2023-10-30T17:54:01.761Z,3.72
2023-10-30T17:56:32.359Z,2.47
2023-10-30T17:59:00.709Z,3.42
2023-10-30T18:01:28.139Z,4.75
2023-10-30T18:03:55.599Z,3.42
2023-10-30T18:06:25.555Z,2.47
2023-10-30T18:08:53.431Z,2.95
2023-10-30T18:11:21.069Z,2.35
2023-10-30T18:13:48.372Z,2.85
2023-10-30T18:16:15.731Z,2.30
2023-10-30T18:18:43.136Z,2.65
2023-10-30T18:21:10.987Z,1.63
2023-10-30T18:23:41.941Z,2.83
2023-10-30T18:28:37.814Z,2.70
2023-10-30T18:31:05.682Z,2.33
2023-10-30T18:33:33.022Z,3.15
2023-10-30T18:36:00.534Z,2.40
2023-10-30T18:38:28.756Z,5.32
2023-10-30T18:41:02.807Z,2.38
2023-10-30T18:43:31.019Z,2.58
2023-10-30T18:45:58.342Z,2.08
2023-10-30T18:48:25.704Z,2.17
2023-10-30T18:50:53.507Z,3.08
2023-10-30T18:53:21.492Z,2.70
2023-10-30T18:55:49.261Z,2.13
2023-10-30T18:58:18.432Z,4.00
2023-10-30T19:00:45.777Z,2.00
2023-10-30T19:03:13.108Z,2.60
2023-10-30T19:05:40.532Z,1.67
2023-10-30T19:08:07.942Z,1.40
2023-10-30T19:10:35.421Z,2.80
2023-10-30T19:13:05.353Z,2.92
2023-10-30T19:15:33.176Z,3.53
2023-10-30T19:18:02.675Z,2.50
2023-10-30T19:20:30.476Z,3.08
2023-10-30T19:22:58.203Z,5.50
2023-10-30T19:25:26.016Z,1.73
2023-10-30T19:27:53.718Z,2.80
2023-10-30T19:30:21.427Z,3.20
2023-10-30T19:32:49.229Z,2.85
2023-10-30T19:35:16.683Z,3.42
2023-10-30T19:37:44.107Z,4.60
2023-10-30T19:40:12.547Z,3.33
2023-10-30T19:42:39.947Z,5.30
2023-10-30T19:45:07.927Z,2.30
2023-10-30T19:47:35.337Z,3.75
2023-10-30T19:50:03.269Z,3.65
2023-10-30T19:52:31.044Z,4.63
2023-10-30T19:54:59.789Z,2.58
2023-10-30T19:57:28.248Z,2.33
2023-10-30T19:59:55.614Z,2.47
2023-10-30T20:02:23.064Z,3.03
2023-10-30T20:04:51.424Z,3.17
2023-10-30T20:07:18.809Z,2.08
2023-10-30T20:09:52.398Z,2.17
2023-10-30T20:12:23.516Z,2.47
2023-10-30T20:14:50.944Z,3.38
2023-10-30T20:17:18.326Z,3.28
2023-10-30T20:19:46.263Z,2.95
2023-10-30T20:22:13.943Z,3.05
2023-10-30T20:24:42.625Z,6.20
2023-10-30T20:27:10.280Z,2.42
2023-10-30T20:29:39.304Z,1.90
2023-10-30T20:32:07.337Z,3.58
2023-10-30T20:34:34.754Z,3.15
2023-10-30T20:37:03.110Z,3.00
2023-10-30T20:39:30.781Z,3.72
2023-10-30T20:41:58.470Z,3.10
2023-10-30T20:44:26.354Z,3.45
2023-10-30T20:46:54.123Z,3.63
2023-10-30T20:49:21.528Z,4.88
2023-10-30T20:51:49.380Z,3.33
2023-10-30T20:54:16.713Z,2.63
2023-10-30T20:56:44.112Z,4.72
2023-10-30T20:59:12.528Z,2.67
2023-10-30T21:01:39.850Z,2.35
2023-10-30T21:04:07.315Z,1.95
2023-10-30T21:06:35.196Z,2.75
2023-10-30T21:09:02.446Z,5.40
2023-10-30T21:11:29.886Z,3.65
2023-10-30T21:13:57.315Z,5.20
2023-10-30T21:16:24.838Z,2.38
2023-10-30T21:18:52.254Z,2.63
2023-10-30T21:21:19.626Z,1.92
2023-10-30T21:23:46.956Z,3.75
2023-10-30T21:26:15.183Z,3.40
2023-10-30T21:28:42.551Z,2.95
2023-10-30T21:31:09.976Z,3.05
2023-10-30T21:33:37.332Z,3.90
2023-10-30T21:36:05.600Z,4.32
2023-10-30T21:38:33.021Z,1.90
2023-10-30T21:41:00.855Z,3.15
2023-10-30T21:43:28.427Z,2.53
2023-10-30T21:45:55.825Z,3.55
2023-10-30T21:48:23.333Z,2.65
2023-10-30T21:50:51.101Z,2.38
2023-10-30T21:53:18.385Z,1.77
2023-10-30T21:55:45.752Z,3.03
2023-10-30T21:58:13.619Z,3.00
2023-10-30T22:00:41.536Z,6.15
2023-10-30T22:03:09.239Z,7.10
2023-10-30T22:05:36.660Z,3.38
2023-10-30T22:08:04.163Z,3.80
2023-10-30T22:10:31.525Z,3.20
2023-10-30T22:12:59.188Z,4.40
2023-10-30T22:15:27.725Z,4.15
2023-10-30T22:17:55.176Z,4.28
2023-10-30T22:20:23.831Z,3.58
2023-10-30T22:22:51.256Z,2.15
2023-10-30T22:25:18.637Z,3.28
2023-10-30T22:27:46.079Z,2.72
2023-10-30T22:30:14.239Z,3.05
2023-10-30T22:32:42.622Z,4.07
2023-10-30T22:35:10.728Z,2.70
2023-10-30T22:37:38.541Z,3.88
2023-10-30T22:40:06.901Z,2.28
2023-10-30T22:42:34.795Z,4.18
2023-10-30T22:45:02.428Z,6.38
2023-10-30T22:47:29.947Z,5.07
2023-10-30T22:49:57.853Z,6.30
2023-10-30T22:52:25.145Z,4.65
2023-10-30T22:54:52.526Z,4.22
2023-10-30T22:57:20.291Z,3.45
2023-10-30T22:59:47.556Z,3.35
2023-10-30T23:02:15.787Z,4.07
2023-10-30T23:04:43.552Z,3.97
2023-10-30T23:07:13.523Z,4.95
2023-10-30T23:09:41.712Z,4.35
2023-10-30T23:12:09.102Z,4.70
2023-10-30T23:14:36.926Z,4.78
2023-10-30T23:17:04.987Z,3.28
2023-10-30T23:19:35.103Z,3.97
2023-10-30T23:22:02.789Z,5.88
2023-10-30T23:24:30.628Z,8.88
2023-10-30T23:26:58.323Z,2.83
2023-10-30T23:29:25.973Z,4.05
2023-10-30T23:31:53.759Z,4.38
2023-10-30T23:34:21.473Z,5.05
2023-10-30T23:36:49.205Z,4.38
2023-10-30T23:39:16.921Z,2.80
2023-10-30T23:41:44.645Z,3.95
2023-10-30T23:44:12.324Z,5.40
2023-10-30T23:46:41.710Z,4.18
2023-10-30T23:49:09.679Z,3.85
2023-10-30T23:51:38.752Z,3.35
2023-10-30T23:54:06.524Z,6.53
2023-10-30T23:56:34.199Z,3.95
2023-10-30T23:59:01.944Z,5.50
